Gulfport, MS

9:22 AM CDT on September 29, 2016 (GMT -0500)
Gulfport-Biloxi Regional | | Change Station

Elev 26 ft 30.41 °N, 89.07 °W | Updated 29 minutes ago

Clear
Clear
74 °F
Feels Like 74 °F
N
13
Wind Variable Wind from NNW

Today
High -- | Low -- °F
--% Chance of Precip.
Yesterday
High -- | Low -- °F
Precip. -- in
Pressure 30.04 in
Visibility 10.0 miles
Clouds Clear
Dew Point 64 °F
Humidity 71%
Rainfall 0.00 in
Snow Depth Not available.
6:48 AM 6:43 PM
Waning Crescent, 2% visible
METAR KGPT 291353Z 34011KT 10SM CLR 23/18 A3004 RMK AO2 SLP172 T02330178
Pressure 30.04 in
Visibility 10.0 miles
Clouds Clear
Dew Point 64 °F
Humidity 71%
Rainfall 0.00 in
Snow Depth Not available.
6:48 AM 6:43 PM
Waning Crescent, 2% visible
METAR KGPT 291353Z 34011KT 10SM CLR 23/18 A3004 RMK AO2 SLP172 T02330178

10-Day Weather Forecast

Almanac

Astronomy

Sep. 29, 2016 Rise Set
Actual Time
Civil Twilight
Nautical Twilight
Astronomical Twilight
Moon
Length of Visible Light
Length of Day
Tomorrow will be .
, % of the Moon is Illuminated

Today's Extremes

State Highs State Lows

Community

WunderPhotos

Upload Photos

1,942,480 photos uploaded!

WunderBlog® & News

Nearby

Air Quality

  Air Quality AQ Index Pollutant
Not available.

Snow Depth

Station Depth Elevation

Earthquake Activity

City Distance Mag. Time & Date
Minimum magnitude displayed is 2.5.

Coastal Water Temperatures

Place Temperature

Stations

Nearby Weather Stations

Station Location Temp. Windchill Dew Point Humidity Wind Precip. Elev Updated Type
                   

Watches & Warnings

There are currently no watches in effect.